createdAt,value
2018-07-20T00:00:16.752Z,89.60
2018-07-20T00:01:16.773Z,206.20
2018-07-20T00:02:16.822Z,134.80
2018-07-20T00:03:16.860Z,67.80
2018-07-20T00:04:16.913Z,100.80
2018-07-20T00:05:16.949Z,104.20
2018-07-20T00:06:16.994Z,106.50
2018-07-20T00:07:17.066Z,128.10
2018-07-20T00:08:17.092Z,137.60
2018-07-20T00:09:17.170Z,106.60
2018-07-20T00:10:17.186Z,108.40
2018-07-20T00:11:17.213Z,112.70
2018-07-20T00:12:17.291Z,100.60
2018-07-20T00:13:17.334Z,84.50
2018-07-20T00:14:17.370Z,84.80
2018-07-20T00:15:17.424Z,77.20
2018-07-20T00:16:17.443Z,87.30
2018-07-20T00:17:17.569Z,86.50
2018-07-20T00:18:17.541Z,81.40
2018-07-20T00:19:17.628Z,108.00
2018-07-20T00:20:17.675Z,96.50
2018-07-20T00:21:17.685Z,110.00
2018-07-20T00:22:17.775Z,109.70
2018-07-20T00:23:17.779Z,93.20
2018-07-20T00:24:17.860Z,88.00
2018-07-20T00:25:17.881Z,105.00
2018-07-20T00:26:17.976Z,79.90
2018-07-20T00:27:17.952Z,96.90
2018-07-20T00:28:18.085Z,85.20
2018-07-20T00:29:18.080Z,92.50
2018-07-20T00:30:18.109Z,112.40
2018-07-20T00:31:18.170Z,78.20
2018-07-20T00:32:18.208Z,54.40
2018-07-20T00:33:18.233Z,113.90
2018-07-20T00:34:18.313Z,89.00
2018-07-20T00:35:18.335Z,73.60
2018-07-20T00:36:18.440Z,111.50
2018-07-20T00:37:18.426Z,91.70
2018-07-20T00:38:18.475Z,111.80
2018-07-20T00:39:18.519Z,60.80
2018-07-20T00:40:20.080Z,126.60
2018-07-20T00:41:18.652Z,81.30
2018-07-20T00:42:18.675Z,82.60
2018-07-20T00:43:18.770Z,70.60
2018-07-20T00:44:18.755Z,83.30
2018-07-20T00:45:18.810Z,90.20
2018-07-20T00:46:18.866Z,90.10
2018-07-20T00:47:18.881Z,52.20
2018-07-20T00:48:18.961Z,68.60
2018-07-20T00:49:18.984Z,71.90
2018-07-20T00:50:19.034Z,62.40
2018-07-20T00:51:19.151Z,51.50
2018-07-20T00:52:19.108Z,55.30
2018-07-20T00:53:19.152Z,79.50
2018-07-20T00:54:19.184Z,57.50
2018-07-20T00:55:19.274Z,76.00
2018-07-20T00:56:19.311Z,66.20
2018-07-20T00:57:19.367Z,63.30
2018-07-20T00:58:19.426Z,71.50
2018-07-20T00:59:19.453Z,65.60
2018-07-20T01:00:19.497Z,66.80
2018-07-20T01:01:19.524Z,58.10
2018-07-20T01:02:19.571Z,84.80
2018-07-20T01:03:19.629Z,66.60
2018-07-20T01:04:19.690Z,117.00
2018-07-20T01:05:19.758Z,121.60
2018-07-20T01:06:19.754Z,63.10
2018-07-20T01:07:19.809Z,70.40
2018-07-20T01:08:19.847Z,70.10
2018-07-20T01:09:19.907Z,72.80
2018-07-20T01:10:19.946Z,70.20
2018-07-20T01:11:20.061Z,64.40
2018-07-20T01:12:20.050Z,66.90
2018-07-20T01:13:20.107Z,66.50
2018-07-20T01:14:20.134Z,70.10
2018-07-20T01:15:20.183Z,65.90
2018-07-20T01:16:20.245Z,49.90
2018-07-20T01:17:20.272Z,79.30
2018-07-20T01:18:20.298Z,63.40
2018-07-20T01:19:20.353Z,58.00
2018-07-20T01:20:20.408Z,69.10
2018-07-20T01:21:20.458Z,73.30
2018-07-20T01:22:20.537Z,72.70
2018-07-20T01:23:20.532Z,62.90
2018-07-20T01:24:20.595Z,73.50
2018-07-20T01:25:20.635Z,69.20
2018-07-20T01:26:20.673Z,81.80
2018-07-20T01:27:20.716Z,60.60
2018-07-20T01:28:20.774Z,64.80
2018-07-20T01:29:20.823Z,170.70
2018-07-20T01:30:20.859Z,97.60
2018-07-20T01:31:20.894Z,84.40
2018-07-20T01:32:20.947Z,84.70
2018-07-20T01:33:21.039Z,61.40
2018-07-20T01:34:21.032Z,66.90
2018-07-20T01:35:21.136Z,67.70
2018-07-20T01:36:21.155Z,75.70
2018-07-20T01:37:21.204Z,83.70
2018-07-20T01:38:21.220Z,69.30
2018-07-20T01:39:21.288Z,83.60
2018-07-20T01:40:21.347Z,78.20
2018-07-20T01:41:21.382Z,68.60
2018-07-20T01:42:21.451Z,83.70
2018-07-20T01:43:21.473Z,72.40
2018-07-20T01:44:21.557Z,76.30
2018-07-20T01:45:21.569Z,82.70
2018-07-20T01:46:21.604Z,66.50
2018-07-20T01:47:21.640Z,67.90
2018-07-20T01:48:21.705Z,76.90
2018-07-20T01:49:21.724Z,85.10
2018-07-20T01:50:21.799Z,73.00
2018-07-20T01:51:21.857Z,66.20
2018-07-20T01:52:21.877Z,60.30
2018-07-20T01:53:21.980Z,79.20
2018-07-20T01:54:22.008Z,74.30
2018-07-20T01:55:22.029Z,64.90
2018-07-20T01:56:22.080Z,63.00
2018-07-20T01:57:22.110Z,76.40
2018-07-20T01:58:22.167Z,64.20
2018-07-20T01:59:22.212Z,66.80
2018-07-20T02:00:22.286Z,56.50
2018-07-20T02:01:22.303Z,71.20
2018-07-20T02:02:22.336Z,54.30
2018-07-20T02:03:22.410Z,71.00
2018-07-20T02:04:22.480Z,68.10
2018-07-20T02:05:22.468Z,69.00
2018-07-20T02:06:22.546Z,78.40
2018-07-20T02:07:22.541Z,59.60
2018-07-20T02:08:22.638Z,68.10
2018-07-20T02:09:22.654Z,79.20
2018-07-20T02:10:22.704Z,57.20
2018-07-20T02:11:22.731Z,64.20
2018-07-20T02:12:22.792Z,55.10
2018-07-20T02:13:22.835Z,74.60
2018-07-20T02:14:22.932Z,81.00
2018-07-20T02:15:22.946Z,81.40
2018-07-20T02:16:22.974Z,80.70
2018-07-20T02:17:23.006Z,58.30
2018-07-20T02:18:23.086Z,78.30
2018-07-20T02:19:23.101Z,83.70
2018-07-20T02:20:23.190Z,95.70
2018-07-20T02:21:23.211Z,75.10
2018-07-20T02:22:23.229Z,107.10
2018-07-20T02:23:23.289Z,94.10
2018-07-20T02:24:23.323Z,110.90
2018-07-20T02:25:23.409Z,105.40
2018-07-20T02:26:23.444Z,85.40
2018-07-20T02:27:23.460Z,110.70
2018-07-20T02:28:23.556Z,109.20
2018-07-20T02:29:23.610Z,102.80
2018-07-20T02:30:23.615Z,111.20
2018-07-20T02:31:23.635Z,134.40
2018-07-20T02:32:23.703Z,106.40
2018-07-20T02:33:23.723Z,124.90
2018-07-20T02:34:23.796Z,124.40
2018-07-20T02:35:23.821Z,183.10
2018-07-20T02:36:23.874Z,78.20
2018-07-20T02:37:23.960Z,98.90
2018-07-20T02:38:23.936Z,103.70
2018-07-20T02:39:24.023Z,150.50
2018-07-20T02:40:24.076Z,159.40
2018-07-20T02:41:24.128Z,129.70
2018-07-20T02:42:24.146Z,134.40
2018-07-20T02:43:24.199Z,152.50
2018-07-20T02:44:24.243Z,156.00
2018-07-20T02:45:24.303Z,122.40
2018-07-20T02:46:24.337Z,149.60
2018-07-20T02:47:24.406Z,154.80
2018-07-20T02:48:24.417Z,177.20
2018-07-20T02:49:24.446Z,152.50
2018-07-20T02:50:24.522Z,153.00
2018-07-20T02:51:24.549Z,162.90
2018-07-20T02:52:24.607Z,155.70
2018-07-20T02:53:24.649Z,150.40
2018-07-20T02:54:24.694Z,114.80
2018-07-20T02:55:24.733Z,110.20
2018-07-20T02:56:24.786Z,208.10
2018-07-20T02:57:24.811Z,128.00
2018-07-20T02:58:24.917Z,133.70
2018-07-20T02:59:24.921Z,96.60
2018-07-20T03:00:24.952Z,109.80
2018-07-20T03:01:25.003Z,126.00
2018-07-20T03:02:25.086Z,133.70
2018-07-20T03:03:25.163Z,144.30
2018-07-20T03:04:25.143Z,141.30
2018-07-20T03:05:25.188Z,145.00
2018-07-20T03:06:25.232Z,129.80
2018-07-20T03:07:25.281Z,138.30
2018-07-20T03:08:25.312Z,144.60
2018-07-20T03:09:25.380Z,129.70
2018-07-20T03:10:25.420Z,118.70
2018-07-20T03:11:25.461Z,138.50
2018-07-20T03:12:25.507Z,136.40
2018-07-20T03:13:25.546Z,137.30
2018-07-20T03:14:25.616Z,135.60
2018-07-20T03:15:25.665Z,122.30
2018-07-20T03:16:25.661Z,136.80
2018-07-20T03:17:25.715Z,137.40
2018-07-20T03:18:25.774Z,112.40
2018-07-20T03:19:25.857Z,103.90
2018-07-20T03:20:25.859Z,117.50
2018-07-20T03:21:25.920Z,119.50
2018-07-20T03:22:25.951Z,117.20
2018-07-20T03:23:26.040Z,149.20
2018-07-20T03:24:26.049Z,115.60
2018-07-20T03:25:26.100Z,89.60
2018-07-20T03:26:26.132Z,121.00
2018-07-20T03:27:26.187Z,123.90
2018-07-20T03:28:26.210Z,129.30
2018-07-20T03:29:26.263Z,110.90
2018-07-20T03:30:26.308Z,99.50
2018-07-20T03:31:26.549Z,129.50
2018-07-20T03:32:26.375Z,137.20
2018-07-20T03:33:26.455Z,117.10
2018-07-20T03:34:26.472Z,113.30
2018-07-20T03:35:26.518Z,109.60
2018-07-20T03:36:26.616Z,97.10
2018-07-20T03:37:26.638Z,106.70
2018-07-20T03:38:26.638Z,107.50
2018-07-20T03:39:26.717Z,96.30
2018-07-20T03:40:26.754Z,114.40
2018-07-20T03:41:26.791Z,102.30
2018-07-20T03:42:27.105Z,112.90
2018-07-20T03:43:26.885Z,103.00
2018-07-20T03:44:26.949Z,101.50
2018-07-20T03:45:26.990Z,111.90
2018-07-20T03:46:27.022Z,109.80
2018-07-20T03:47:27.098Z,104.00
2018-07-20T03:48:27.132Z,127.60
2018-07-20T03:49:27.175Z,88.40
2018-07-20T03:50:27.213Z,107.10
2018-07-20T03:51:27.234Z,107.10
2018-07-20T03:52:27.308Z,79.90
2018-07-20T03:53:27.339Z,76.90
2018-07-20T03:54:27.440Z,120.70
2018-07-20T03:55:27.445Z,117.10
2018-07-20T03:56:27.521Z,108.10
2018-07-20T03:57:27.527Z,110.40
2018-07-20T03:58:27.582Z,96.40
2018-07-20T03:59:27.625Z,133.60
2018-07-20T04:00:27.630Z,127.30
2018-07-20T04:01:27.707Z,119.10
2018-07-20T04:02:27.766Z,106.50
2018-07-20T04:03:27.794Z,103.90
2018-07-20T04:04:28.036Z,78.40
2018-07-20T04:05:27.899Z,90.50
2018-07-20T04:06:27.907Z,121.70
2018-07-20T04:07:27.958Z,108.20
2018-07-20T04:08:28.007Z,127.80
2018-07-20T04:09:28.063Z,97.10
2018-07-20T04:10:28.092Z,95.00
2018-07-20T04:11:28.162Z,116.10
2018-07-20T04:12:28.213Z,128.40
2018-07-20T04:13:28.243Z,95.90
2018-07-20T04:14:28.283Z,102.70
2018-07-20T04:15:28.340Z,116.60
2018-07-20T04:16:28.579Z,105.30
2018-07-20T04:17:28.411Z,112.00
2018-07-20T04:18:28.450Z,119.40
2018-07-20T04:19:28.519Z,139.40
2018-07-20T04:20:28.549Z,125.30
2018-07-20T04:21:28.609Z,106.60
2018-07-20T04:22:28.625Z,116.50
2018-07-20T04:23:28.671Z,112.40
2018-07-20T04:24:28.732Z,132.60
2018-07-20T04:25:28.749Z,137.90
2018-07-20T04:26:28.826Z,128.40
2018-07-20T04:27:28.866Z,117.80
2018-07-20T04:28:28.877Z,138.40
2018-07-20T04:29:28.910Z,138.80
2018-07-20T04:30:28.996Z,150.50
2018-07-20T04:31:29.038Z,128.20
2018-07-20T04:32:29.068Z,141.40
2018-07-20T04:33:29.121Z,125.10
2018-07-20T04:34:29.182Z,169.90
2018-07-20T04:35:29.207Z,134.90
2018-07-20T04:36:29.420Z,179.50
2018-07-20T04:37:29.282Z,130.40
2018-07-20T04:38:29.342Z,137.10
2018-07-20T04:39:29.371Z,147.20
2018-07-20T04:40:29.432Z,158.20
2018-07-20T04:41:29.467Z,126.50
2018-07-20T04:42:29.522Z,147.20
2018-07-20T04:43:29.568Z,133.20
2018-07-20T04:44:29.617Z,132.50
2018-07-20T04:45:29.661Z,150.90
2018-07-20T04:46:29.708Z,126.30
2018-07-20T04:47:29.732Z,127.60
2018-07-20T04:48:29.793Z,143.60
2018-07-20T04:49:29.829Z,147.40
2018-07-20T04:50:29.871Z,152.70
2018-07-20T04:51:29.906Z,145.50
2018-07-20T04:52:29.988Z,134.20
2018-07-20T04:53:30.002Z,140.10
2018-07-20T04:54:30.051Z,147.10
2018-07-20T04:55:30.080Z,148.60
2018-07-20T04:56:30.131Z,149.60
2018-07-20T04:57:30.182Z,153.90
2018-07-20T04:58:30.270Z,155.30
2018-07-20T04:59:30.254Z,132.80
2018-07-20T05:00:30.310Z,146.60
2018-07-20T05:01:30.408Z,171.90
2018-07-20T05:02:30.395Z,138.90
2018-07-20T05:03:30.443Z,138.00
2018-07-20T05:04:30.461Z,147.10
2018-07-20T05:05:30.529Z,148.70
2018-07-20T05:06:30.594Z,143.00
2018-07-20T05:07:30.619Z,164.40
2018-07-20T05:08:30.669Z,160.00
2018-07-20T05:09:30.695Z,152.10
2018-07-20T05:10:30.786Z,151.50
2018-07-20T05:11:31.156Z,159.20
2018-07-20T05:12:30.834Z,167.00
2018-07-20T05:13:30.909Z,138.20
2018-07-20T05:14:30.918Z,151.20
2018-07-20T05:15:31.000Z,146.60
2018-07-20T05:16:31.030Z,155.00
2018-07-20T05:17:31.113Z,162.80
2018-07-20T05:18:31.154Z,161.80
2018-07-20T05:19:31.158Z,163.20
2018-07-20T05:20:31.219Z,167.10
2018-07-20T05:21:31.245Z,159.70
2018-07-20T05:22:31.493Z,155.70
2018-07-20T05:23:31.297Z,157.50
2018-07-20T05:24:31.385Z,159.50
2018-07-20T05:25:31.448Z,166.80
2018-07-20T05:26:31.455Z,158.70
2018-07-20T05:27:31.527Z,180.80
2018-07-20T05:28:31.555Z,165.70
2018-07-20T05:29:31.620Z,157.30
2018-07-20T05:30:31.644Z,157.40
2018-07-20T05:31:31.685Z,162.00
2018-07-20T05:32:31.755Z,163.90
2018-07-20T05:33:31.778Z,159.00
2018-07-20T05:34:31.821Z,168.60
2018-07-20T05:35:31.849Z,163.80
2018-07-20T05:36:31.888Z,175.80
2018-07-20T05:37:31.946Z,171.00
2018-07-20T05:38:32.001Z,172.00
2018-07-20T05:39:32.031Z,170.20
2018-07-20T05:40:32.121Z,174.60
2018-07-20T05:41:32.119Z,170.50
2018-07-20T05:42:32.179Z,165.50
2018-07-20T05:43:32.226Z,168.70
2018-07-20T05:44:32.271Z,175.50
2018-07-20T05:45:32.319Z,180.90
2018-07-20T05:46:32.326Z,183.10
2018-07-20T05:47:32.392Z,182.50
2018-07-20T05:48:32.426Z,181.90
2018-07-20T05:49:32.544Z,177.80
2018-07-20T05:50:32.520Z,192.40
2018-07-20T05:51:32.586Z,190.70
2018-07-20T05:52:32.640Z,182.00
2018-07-20T05:53:32.706Z,187.00
2018-07-20T05:54:32.736Z,173.40
2018-07-20T05:55:32.745Z,190.80
2018-07-20T05:56:32.766Z,197.40
2018-07-20T05:57:32.847Z,188.20
2018-07-20T05:58:32.858Z,192.80
2018-07-20T05:59:32.895Z,189.10
2018-07-20T06:00:33.032Z,197.20
2018-07-20T06:01:32.995Z,184.90
2018-07-20T06:02:33.048Z,187.10
2018-07-20T06:03:33.140Z,199.30
2018-07-20T06:04:33.339Z,197.70
2018-07-20T06:05:33.224Z,190.50
2018-07-20T06:06:33.201Z,197.20
2018-07-20T06:07:33.301Z,194.60
2018-07-20T06:08:33.310Z,194.50
2018-07-20T06:09:33.351Z,191.80
2018-07-20T06:10:33.406Z,195.90
2018-07-20T06:11:33.453Z,186.70
2018-07-20T06:12:33.483Z,190.80
2018-07-20T06:13:33.532Z,206.20
2018-07-20T06:14:33.580Z,205.10
2018-07-20T06:15:33.595Z,221.50
2018-07-20T06:16:33.652Z,228.10
2018-07-20T06:17:33.679Z,230.30
2018-07-20T06:18:33.753Z,239.60
2018-07-20T06:19:33.985Z,231.40
2018-07-20T06:20:33.844Z,237.00
2018-07-20T06:21:33.898Z,256.40
2018-07-20T06:22:33.902Z,234.00
2018-07-20T06:23:33.994Z,248.70
2018-07-20T06:24:34.036Z,258.60
2018-07-20T06:25:34.064Z,254.60
2018-07-20T06:26:34.084Z,272.00
2018-07-20T06:27:34.168Z,304.10
2018-07-20T06:28:34.183Z,289.50
2018-07-20T06:29:34.278Z,288.30
2018-07-20T06:30:34.273Z,291.10
2018-07-20T06:31:34.324Z,294.70
2018-07-20T06:32:34.374Z,313.60
2018-07-20T06:33:34.404Z,282.50
2018-07-20T06:34:34.467Z,279.50
2018-07-20T06:35:34.500Z,292.70
2018-07-20T06:36:34.518Z,290.10
2018-07-20T06:37:34.598Z,301.00
2018-07-20T06:38:34.673Z,262.00
2018-07-20T06:39:34.669Z,249.10
2018-07-20T06:40:34.825Z,277.60
2018-07-20T06:41:34.744Z,255.00
2018-07-20T06:42:34.819Z,263.00
2018-07-20T06:43:34.853Z,264.20
2018-07-20T06:44:34.905Z,274.70
2018-07-20T06:45:34.923Z,280.30
2018-07-20T06:46:34.974Z,257.30
2018-07-20T06:47:35.021Z,289.60
2018-07-20T06:48:35.086Z,271.90
2018-07-20T06:49:35.154Z,287.90
2018-07-20T06:50:35.132Z,292.80
2018-07-20T06:51:35.203Z,304.40
2018-07-20T06:52:35.261Z,301.20
2018-07-20T06:53:35.290Z,306.20
2018-07-20T06:54:35.297Z,290.50
2018-07-20T06:55:35.386Z,314.80
2018-07-20T06:56:35.406Z,307.40
2018-07-20T06:57:35.654Z,321.20
2018-07-20T06:58:35.497Z,321.30
2018-07-20T06:59:35.554Z,322.90
2018-07-20T07:00:35.599Z,337.90
2018-07-20T07:01:35.637Z,331.70
2018-07-20T07:02:35.676Z,347.90
2018-07-20T07:03:35.697Z,342.60
2018-07-20T07:04:35.766Z,333.10
2018-07-20T07:05:35.795Z,345.40
2018-07-20T07:06:35.849Z,329.30
2018-07-20T07:07:35.894Z,344.00
2018-07-20T07:08:35.933Z,357.00
2018-07-20T07:09:36.240Z,351.00
2018-07-20T07:10:36.019Z,352.60
2018-07-20T07:11:36.049Z,341.70
2018-07-20T07:12:36.095Z,361.30
2018-07-20T07:13:36.170Z,343.60
2018-07-20T07:14:36.193Z,338.70
2018-07-20T07:15:36.224Z,412.70
2018-07-20T07:16:36.286Z,368.90
2018-07-20T07:17:36.316Z,336.10
2018-07-20T07:18:36.362Z,350.10
2018-07-20T07:19:36.406Z,364.10
2018-07-20T07:20:36.491Z,359.40
2018-07-20T07:21:36.677Z,355.60
2018-07-20T07:22:36.538Z,343.30
2018-07-20T07:23:36.627Z,362.50
2018-07-20T07:24:36.620Z,367.30
2018-07-20T07:25:36.684Z,376.10
2018-07-20T07:26:36.712Z,398.50
2018-07-20T07:27:36.952Z,365.70
2018-07-20T07:28:36.782Z,366.80
2018-07-20T07:29:36.861Z,371.40
2018-07-20T07:30:36.861Z,386.60
2018-07-20T07:31:36.899Z,374.30
2018-07-20T07:32:36.968Z,388.50
2018-07-20T07:33:37.239Z,366.10
2018-07-20T07:34:37.046Z,369.40
2018-07-20T07:35:37.138Z,349.20
2018-07-20T07:36:37.127Z,373.40
2018-07-20T07:37:37.179Z,353.70
2018-07-20T07:38:37.234Z,379.80
2018-07-20T07:39:37.449Z,384.20
2018-07-20T07:40:37.331Z,366.10
2018-07-20T07:41:37.401Z,377.60
2018-07-20T07:42:37.380Z,374.10
2018-07-20T07:43:37.421Z,347.40
2018-07-20T07:44:37.479Z,370.10
2018-07-20T07:45:37.523Z,347.40
2018-07-20T07:46:37.755Z,356.40
2018-07-20T07:47:37.618Z,332.50
2018-07-20T07:48:37.657Z,367.20
2018-07-20T07:49:37.711Z,367.10
2018-07-20T07:50:37.730Z,371.70
2018-07-20T07:51:37.778Z,371.60
2018-07-20T07:52:37.802Z,350.20
2018-07-20T07:53:37.870Z,369.90
2018-07-20T07:54:37.918Z,358.90
2018-07-20T07:55:37.950Z,342.40
2018-07-20T07:56:38.228Z,399.60
2018-07-20T07:57:38.239Z,376.70
2018-07-20T07:58:38.085Z,368.70
2018-07-20T07:59:38.121Z,375.90
2018-07-20T08:00:38.164Z,363.00
2018-07-20T08:01:38.186Z,363.10
2018-07-20T08:02:38.248Z,356.30
2018-07-20T08:03:38.507Z,358.10
2018-07-20T08:04:38.345Z,369.30
2018-07-20T08:05:38.395Z,367.20
2018-07-20T08:06:38.405Z,354.40
2018-07-20T08:07:38.455Z,347.20
2018-07-20T08:08:38.533Z,371.20
2018-07-20T08:09:38.595Z,371.60
2018-07-20T08:10:38.610Z,384.50
2018-07-20T08:11:38.634Z,378.50
2018-07-20T08:12:38.718Z,360.90
2018-07-20T08:13:38.706Z,354.30
2018-07-20T08:14:38.940Z,369.10
2018-07-20T08:15:38.831Z,394.70
2018-07-20T08:16:38.857Z,369.00
2018-07-20T08:17:38.879Z,381.70
2018-07-20T08:18:38.937Z,375.00
2018-07-20T08:19:38.966Z,382.60
2018-07-20T08:20:39.059Z,363.10
2018-07-20T08:21:39.057Z,361.60
2018-07-20T08:22:39.100Z,397.40
2018-07-20T08:23:39.135Z,410.90
2018-07-20T08:24:39.163Z,448.30
2018-07-20T08:25:39.420Z,414.30
2018-07-20T08:26:39.319Z,389.10
2018-07-20T08:27:39.316Z,399.40
2018-07-20T08:28:39.353Z,419.80
2018-07-20T08:29:39.437Z,425.40
2018-07-20T08:30:39.442Z,399.90
2018-07-20T08:31:39.531Z,406.80
2018-07-20T08:32:39.539Z,445.60
2018-07-20T08:33:39.566Z,396.30
2018-07-20T08:34:39.664Z,403.20
2018-07-20T08:35:39.652Z,407.00
2018-07-20T08:36:39.759Z,412.50
2018-07-20T08:37:39.759Z,371.60
2018-07-20T08:38:39.809Z,380.20
2018-07-20T08:39:39.837Z,394.70
2018-07-20T08:40:39.889Z,367.40
2018-07-20T08:41:40.133Z,393.20
2018-07-20T08:42:39.964Z,399.70
2018-07-20T08:43:39.991Z,374.90
2018-07-20T08:44:40.080Z,372.60
2018-07-20T08:45:40.106Z,368.00
2018-07-20T08:46:40.136Z,392.20
2018-07-20T08:47:40.162Z,372.70
2018-07-20T08:48:40.226Z,423.50
2018-07-20T08:49:40.258Z,403.90
2018-07-20T08:50:40.309Z,422.30
2018-07-20T08:51:40.348Z,464.70
2018-07-20T08:52:40.396Z,438.40
2018-07-20T08:53:40.629Z,374.00
2018-07-20T08:54:40.483Z,365.20
2018-07-20T08:55:40.503Z,364.60
2018-07-20T08:56:40.532Z,471.10
2018-07-20T08:57:40.582Z,449.20
2018-07-20T08:58:40.641Z,403.00
2018-07-20T08:59:40.671Z,389.60
2018-07-20T09:00:40.914Z,398.50
2018-07-20T09:01:40.758Z,365.80
2018-07-20T09:02:40.853Z,373.60
2018-07-20T09:03:40.935Z,409.10
2018-07-20T09:04:40.902Z,378.00
2018-07-20T09:05:40.989Z,404.10
2018-07-20T09:06:40.988Z,362.40
2018-07-20T09:07:41.054Z,378.90
2018-07-20T09:08:41.081Z,389.00
2018-07-20T09:09:41.120Z,376.80
2018-07-20T09:10:41.150Z,354.50
2018-07-20T09:11:41.212Z,394.80
2018-07-20T09:12:41.232Z,385.90
2018-07-20T09:13:41.393Z,378.60
2018-07-20T09:14:41.337Z,366.90
2018-07-20T09:15:41.379Z,369.50
2018-07-20T09:16:41.394Z,362.10
2018-07-20T09:17:41.448Z,365.90
2018-07-20T09:18:41.700Z,376.10
2018-07-20T09:19:41.547Z,402.30
2018-07-20T09:20:41.622Z,398.10
2018-07-20T09:21:41.613Z,387.60
2018-07-20T09:22:41.649Z,409.20
2018-07-20T09:23:41.710Z,361.00
2018-07-20T09:24:41.749Z,347.30
2018-07-20T09:25:41.797Z,364.10
2018-07-20T09:26:41.826Z,364.40
2018-07-20T09:27:41.877Z,366.80
2018-07-20T09:28:41.919Z,366.50
2018-07-20T09:29:41.975Z,400.60
2018-07-20T09:30:42.006Z,384.40
2018-07-20T09:31:42.087Z,390.80
2018-07-20T09:32:42.086Z,385.30
2018-07-20T09:33:42.139Z,392.50
2018-07-20T09:34:42.161Z,376.00
2018-07-20T09:35:42.207Z,389.20
2018-07-20T09:36:42.456Z,421.20
2018-07-20T09:37:42.292Z,407.30
2018-07-20T09:38:42.337Z,448.40
2018-07-20T09:39:42.389Z,403.10
2018-07-20T09:40:42.433Z,424.00
2018-07-20T09:41:42.530Z,397.60
2018-07-20T09:42:42.546Z,421.80
2018-07-20T09:43:42.562Z,427.50
2018-07-20T09:44:42.607Z,425.90
2018-07-20T09:45:42.695Z,416.10
2018-07-20T09:46:42.662Z,433.70
2018-07-20T09:47:42.726Z,435.00
2018-07-20T09:48:42.765Z,415.90
2018-07-20T09:49:42.822Z,414.30
2018-07-20T09:50:42.883Z,416.10
2018-07-20T09:51:42.942Z,436.10
2018-07-20T09:52:42.950Z,445.80
2018-07-20T09:53:42.971Z,447.00
2018-07-20T09:54:42.993Z,401.80
2018-07-20T09:55:43.081Z,412.10
2018-07-20T09:56:43.091Z,421.80
2018-07-20T09:57:43.358Z,417.40
2018-07-20T09:58:43.241Z,415.10
2018-07-20T09:59:43.329Z,399.70
2018-07-20T10:00:43.287Z,409.60
2018-07-20T10:01:43.305Z,411.50
2018-07-20T10:02:43.366Z,417.00
2018-07-20T10:03:43.388Z,423.10
2018-07-20T10:04:43.422Z,422.30
2018-07-20T10:05:43.510Z,425.80
2018-07-20T10:06:43.521Z,443.00
2018-07-20T10:07:43.573Z,447.90
2018-07-20T10:08:43.622Z,413.10
2018-07-20T10:09:43.649Z,445.20
2018-07-20T10:10:43.706Z,443.90
2018-07-20T10:11:43.734Z,449.60
2018-07-20T10:12:44.125Z,433.10
2018-07-20T10:13:43.814Z,431.30
2018-07-20T10:14:43.878Z,407.20
2018-07-20T10:15:43.882Z,457.30
2018-07-20T10:16:43.951Z,454.60
2018-07-20T10:17:43.979Z,460.40
2018-07-20T10:18:44.079Z,450.70
2018-07-20T10:19:44.068Z,443.00
2018-07-20T10:20:44.133Z,442.30
2018-07-20T10:21:44.170Z,461.50
2018-07-20T10:22:44.224Z,456.10
2018-07-20T10:23:44.236Z,452.10
2018-07-20T10:24:44.330Z,454.40
2018-07-20T10:25:44.404Z,465.00
2018-07-20T10:26:44.403Z,473.30
2018-07-20T10:28:44.466Z,485.10
2018-07-20T10:29:44.562Z,447.80
2018-07-20T10:30:44.595Z,466.40
2018-07-20T10:31:44.600Z,450.50
2018-07-20T10:32:44.637Z,434.20
2018-07-20T10:33:44.666Z,477.70
2018-07-20T10:34:44.726Z,449.70
2018-07-20T10:35:44.779Z,449.40
2018-07-20T10:36:44.806Z,483.20
2018-07-20T10:37:44.852Z,466.10
2018-07-20T10:38:44.901Z,468.80
2018-07-20T10:39:44.932Z,487.00
2018-07-20T10:40:44.983Z,484.50
2018-07-20T10:41:45.005Z,496.40
2018-07-20T10:42:45.060Z,532.30
2018-07-20T10:43:45.119Z,481.00
2018-07-20T10:44:45.149Z,405.90
2018-07-20T10:45:45.416Z,304.50
2018-07-20T10:46:45.283Z,174.20
2018-07-20T10:47:45.276Z,118.60
2018-07-20T10:48:45.338Z,60.80
2018-07-20T10:49:45.365Z,67.00
2018-07-20T10:50:45.450Z,117.10
2018-07-20T10:51:45.480Z,94.30
2018-07-20T10:52:45.529Z,104.40
2018-07-20T10:53:45.575Z,91.90
2018-07-20T10:54:45.648Z,100.80
2018-07-20T10:55:45.635Z,91.40
2018-07-20T10:56:45.694Z,100.00
2018-07-20T10:57:45.745Z,110.60
2018-07-20T10:58:45.814Z,104.20
2018-07-20T10:59:45.822Z,112.60
2018-07-20T11:00:45.873Z,104.00
2018-07-20T11:01:45.983Z,86.40
2018-07-20T11:02:45.991Z,60.70
2018-07-20T11:03:46.015Z,57.30
2018-07-20T11:04:46.093Z,58.30
2018-07-20T11:05:46.155Z,60.50
2018-07-20T11:06:46.143Z,75.80
2018-07-20T11:07:46.194Z,74.90
2018-07-20T11:08:46.463Z,71.20
2018-07-20T11:09:46.319Z,78.20
2018-07-20T11:10:46.377Z,86.40
2018-07-20T11:11:46.401Z,79.50
2018-07-20T11:12:46.434Z,63.80
2018-07-20T11:13:46.581Z,61.70
2018-07-20T11:14:46.552Z,60.10
2018-07-20T11:15:46.613Z,54.40
2018-07-20T11:16:46.659Z,53.40
2018-07-20T11:17:46.676Z,50.30
2018-07-20T11:18:46.789Z,54.80
2018-07-20T11:19:46.860Z,87.40
2018-07-20T11:20:46.838Z,60.00
2018-07-20T11:21:46.901Z,60.00
2018-07-20T11:22:46.936Z,54.60
2018-07-20T11:23:47.025Z,55.10
2018-07-20T11:24:47.031Z,54.90
2018-07-20T11:25:47.108Z,55.20
2018-07-20T11:26:47.123Z,45.30
2018-07-20T11:27:47.199Z,41.80
2018-07-20T11:28:47.223Z,47.00
2018-07-20T11:29:47.319Z,38.20
2018-07-20T11:30:47.572Z,35.60
2018-07-20T11:31:47.392Z,38.90
2018-07-20T11:32:47.442Z,36.40
2018-07-20T11:33:47.505Z,33.10
2018-07-20T11:34:47.626Z,32.60
2018-07-20T11:35:47.620Z,32.30
2018-07-20T11:36:47.633Z,31.10
2018-07-20T11:37:47.723Z,34.10
2018-07-20T11:38:47.775Z,33.20
2018-07-20T11:39:47.806Z,33.20
2018-07-20T11:40:47.862Z,30.70
2018-07-20T11:41:47.948Z,31.50
2018-07-20T11:42:47.973Z,31.20
2018-07-20T11:43:48.040Z,34.70
2018-07-20T11:44:48.060Z,32.30
2018-07-20T11:45:48.131Z,27.30
2018-07-20T11:46:48.166Z,29.10
2018-07-20T11:47:48.242Z,32.10
2018-07-20T11:48:48.292Z,31.30
2018-07-20T11:49:48.335Z,27.20
2018-07-20T11:50:48.399Z,31.90
2018-07-20T11:51:48.431Z,32.10
2018-07-20T11:52:48.487Z,33.10
2018-07-20T11:53:48.556Z,38.80
2018-07-20T11:54:48.608Z,36.00
2018-07-20T11:55:48.638Z,35.80
2018-07-20T11:56:48.708Z,35.70
2018-07-20T11:57:48.759Z,38.70
2018-07-20T11:58:48.788Z,41.60
2018-07-20T11:59:48.917Z,44.00
2018-07-20T12:00:48.905Z,38.80
2018-07-20T12:01:48.974Z,42.90
2018-07-20T12:02:48.996Z,43.70
2018-07-20T12:03:49.072Z,38.60
2018-07-20T12:04:49.136Z,26.50
2018-07-20T12:05:49.169Z,39.70
2018-07-20T12:06:49.263Z,33.60
2018-07-20T12:07:49.263Z,34.00
2018-07-20T12:08:49.313Z,40.90
2018-07-20T12:09:49.391Z,37.30
2018-07-20T12:10:49.435Z,34.30
2018-07-20T12:11:49.504Z,29.40
2018-07-20T12:12:49.562Z,28.90
2018-07-20T12:13:49.581Z,26.70
2018-07-20T12:14:49.670Z,34.90
2018-07-20T12:15:49.896Z,27.80
2018-07-20T12:16:49.772Z,28.20
2018-07-20T12:17:49.810Z,27.60
2018-07-20T12:18:49.937Z,25.20
2018-07-20T12:19:49.922Z,24.70
2018-07-20T12:20:49.982Z,22.50
2018-07-20T12:21:50.024Z,24.10
2018-07-20T12:22:50.103Z,22.10
2018-07-20T12:23:50.136Z,21.90
2018-07-20T12:24:50.197Z,20.60
2018-07-20T12:25:50.246Z,22.20
2018-07-20T12:26:50.308Z,21.00
2018-07-20T12:27:50.352Z,20.50
2018-07-20T12:28:50.423Z,37.40
2018-07-20T12:29:50.468Z,21.80
2018-07-20T12:30:50.527Z,22.60
2018-07-20T12:31:50.564Z,22.80
2018-07-20T12:32:50.621Z,21.70
2018-07-20T12:33:50.673Z,20.20
2018-07-20T12:34:50.755Z,22.10
2018-07-20T12:35:50.778Z,20.70
2018-07-20T12:36:50.839Z,28.70